createdAt,value
2023-02-02T00:00:46.012Z,21.58
2023-02-02T00:03:50.933Z,22.70
2023-02-02T00:06:53.571Z,20.70
2023-02-02T00:09:55.419Z,21.92
2023-02-02T00:12:58.169Z,21.95
2023-02-02T00:16:37.373Z,21.58
2023-02-02T00:19:39.305Z,19.50
2023-02-02T00:22:41.235Z,22.08
2023-02-02T00:25:43.654Z,21.52
2023-02-02T00:28:45.741Z,20.35
2023-02-02T00:31:48.361Z,21.87
2023-02-02T00:34:50.334Z,20.00
2023-02-02T00:37:52.242Z,22.27
2023-02-02T00:40:54.150Z,20.30
2023-02-02T00:44:14.533Z,18.52
2023-02-02T00:47:18.025Z,21.48
2023-02-02T00:50:21.775Z,20.33
2023-02-02T00:53:23.923Z,22.05
2023-02-02T00:56:26.084Z,21.73
2023-02-02T00:59:28.181Z,20.50
2023-02-02T01:02:30.188Z,21.40
2023-02-02T01:05:33.921Z,18.90
2023-02-02T01:08:36.017Z,19.00
2023-02-02T01:11:37.907Z,19.10
2023-02-02T01:14:39.847Z,17.55
2023-02-02T01:17:41.733Z,18.73
2023-02-02T01:20:43.669Z,17.25
2023-02-02T01:23:45.569Z,18.42
2023-02-02T01:26:47.576Z,17.25
2023-02-02T01:29:49.488Z,16.17
2023-02-02T01:32:51.605Z,16.42
2023-02-02T01:35:56.125Z,16.17
2023-02-02T01:38:58.349Z,17.55
2023-02-02T01:42:00.312Z,16.15
2023-02-02T01:45:02.120Z,16.67
2023-02-02T01:48:04.168Z,17.27
2023-02-02T01:51:09.872Z,16.67
2023-02-02T01:54:35.423Z,17.83
2023-02-02T01:57:42.192Z,16.50
2023-02-02T02:00:46.933Z,15.63
2023-02-02T02:03:49.011Z,16.55
2023-02-02T02:06:53.733Z,16.87
2023-02-02T02:09:55.886Z,16.13
2023-02-02T02:12:58.185Z,17.23
2023-02-02T02:16:19.746Z,16.48
2023-02-02T02:20:05.661Z,15.32
2023-02-02T02:23:53.089Z,14.18
2023-02-02T02:27:24.605Z,14.10
2023-02-02T02:31:01.590Z,14.88
2023-02-02T02:34:07.958Z,14.35
2023-02-02T02:37:30.568Z,13.50
2023-02-02T02:40:41.633Z,13.07
2023-02-02T02:43:52.998Z,12.65
2023-02-02T02:46:57.309Z,14.02
2023-02-02T02:49:59.663Z,12.98
2023-02-02T02:53:09.735Z,13.00
2023-02-02T02:56:25.033Z,13.05
2023-02-02T02:59:53.337Z,13.13
2023-02-02T03:03:16.545Z,13.57
2023-02-02T03:06:28.220Z,13.82
2023-02-02T03:09:37.200Z,15.38
2023-02-02T03:12:47.530Z,13.40
2023-02-02T03:15:49.589Z,12.60
2023-02-02T03:18:51.504Z,12.13
2023-02-02T03:21:53.425Z,12.88
2023-02-02T03:24:57.003Z,13.35
2023-02-02T03:27:59.074Z,14.38
2023-02-02T03:31:02.278Z,13.83
2023-02-02T03:34:04.217Z,14.50
2023-02-02T03:37:06.082Z,12.80
2023-02-02T03:40:08.570Z,12.00
2023-02-02T03:43:10.979Z,13.40
2023-02-02T03:46:12.918Z,12.48
2023-02-02T03:49:14.912Z,13.50
2023-02-02T03:52:16.820Z,12.23
2023-02-02T03:55:18.692Z,13.52
2023-02-02T03:58:22.408Z,12.68
2023-02-02T04:01:29.399Z,13.07
2023-02-02T04:04:31.398Z,11.88
2023-02-02T04:07:33.341Z,13.48
2023-02-02T04:10:35.217Z,13.27
2023-02-02T04:13:37.222Z,13.40
2023-02-02T04:16:39.136Z,13.48
2023-02-02T04:19:41.129Z,12.65
2023-02-02T04:22:42.945Z,14.45
2023-02-02T04:25:51.641Z,14.45
2023-02-02T04:28:54.075Z,13.45
2023-02-02T04:31:56.243Z,14.23
2023-02-02T04:34:58.228Z,14.10
2023-02-02T04:38:00.129Z,13.60
2023-02-02T04:41:07.920Z,13.73
2023-02-02T04:44:18.030Z,14.75
2023-02-02T04:47:19.918Z,14.07
2023-02-02T04:50:21.862Z,14.30
2023-02-02T04:53:24.811Z,14.35
2023-02-02T04:59:30.101Z,13.50
2023-02-02T05:02:32.018Z,16.05
2023-02-02T05:05:33.980Z,14.85
2023-02-02T05:08:36.794Z,14.70
2023-02-02T05:11:41.250Z,15.93
2023-02-02T05:14:43.200Z,15.77
2023-02-02T05:17:45.129Z,15.55
2023-02-02T05:20:47.085Z,14.98
2023-02-02T05:23:49.463Z,14.15
2023-02-02T05:26:52.989Z,14.45
2023-02-02T05:29:54.939Z,14.90
2023-02-02T05:32:56.761Z,15.27
2023-02-02T05:35:58.645Z,14.77
2023-02-02T05:39:00.582Z,15.85
2023-02-02T08:55:16.127Z,19.30
2023-02-02T08:58:18.023Z,17.52
2023-02-02T09:01:25.544Z,17.27
2023-02-02T09:04:27.527Z,17.52
2023-02-02T09:07:29.402Z,18.67
2023-02-02T09:10:32.262Z,26.33
2023-02-02T09:13:35.019Z,27.73
2023-02-02T09:16:37.100Z,31.80
2023-02-02T09:19:39.118Z,42.45
2023-02-02T09:22:41.089Z,40.35
2023-02-02T09:25:43.050Z,47.80
2023-02-02T09:28:54.349Z,49.70
2023-02-02T09:31:56.442Z,43.08
2023-02-02T09:34:58.420Z,47.47
2023-02-02T09:38:00.356Z,22.10
2023-02-02T09:41:14.629Z,20.42
2023-02-02T09:44:46.113Z,21.02
2023-02-02T09:47:58.589Z,19.02
2023-02-02T09:51:06.995Z,17.60
2023-02-02T09:54:19.786Z,22.23
2023-02-02T09:57:31.230Z,18.88
2023-02-02T10:00:39.853Z,23.13
2023-02-02T10:04:01.366Z,18.92
2023-02-02T10:07:14.312Z,18.17
2023-02-02T10:10:21.604Z,23.60
2023-02-02T10:13:33.633Z,20.83
2023-02-02T10:16:37.958Z,24.77
2023-02-02T10:19:42.533Z,28.77
2023-02-02T10:22:46.586Z,31.13
2023-02-02T10:26:12.011Z,23.08
2023-02-02T10:29:23.674Z,29.63
2023-02-02T10:32:29.072Z,25.20
2023-02-02T10:35:40.465Z,29.63
2023-02-02T10:38:54.562Z,25.27
2023-02-02T10:42:25.519Z,21.98
2023-02-02T10:45:27.595Z,16.13
2023-02-02T10:48:35.905Z,15.63
2023-02-02T10:51:38.565Z,14.98
2023-02-02T10:54:55.765Z,14.60
2023-02-02T10:58:03.306Z,14.95
2023-02-02T11:01:11.606Z,21.65
2023-02-02T11:04:32.572Z,25.25
2023-02-02T11:07:36.220Z,20.48
2023-02-02T11:10:38.235Z,24.27
2023-02-02T11:13:55.424Z,15.60
2023-02-02T11:17:24.955Z,20.85
2023-02-02T11:20:39.164Z,17.55
2023-02-02T11:23:41.174Z,12.45
2023-02-02T11:26:55.956Z,13.32
2023-02-02T11:30:00.037Z,12.60
2023-02-02T11:33:30.147Z,12.07
2023-02-02T11:36:32.247Z,13.95
2023-02-02T11:39:34.279Z,15.47
2023-02-02T11:42:36.263Z,15.00
2023-02-02T11:45:41.844Z,13.50
2023-02-02T11:49:00.968Z,12.02
2023-02-02T11:52:06.816Z,13.20
2023-02-02T11:55:17.613Z,12.52
2023-02-02T11:58:25.148Z,12.68
2023-02-02T12:01:35.785Z,12.18
2023-02-02T12:04:37.769Z,14.70
2023-02-02T12:07:40.759Z,12.20
2023-02-02T12:10:46.858Z,11.57
2023-02-02T12:14:00.959Z,14.63
2023-02-02T12:17:12.102Z,12.50
2023-02-02T12:20:46.750Z,19.10
2023-02-02T12:24:18.599Z,19.70
2023-02-02T12:27:42.219Z,25.17
2023-02-02T12:31:07.652Z,19.15
2023-02-02T12:34:30.716Z,21.13
2023-02-02T12:37:52.069Z,17.33
2023-02-02T12:41:10.080Z,16.83
2023-02-02T12:44:50.945Z,17.27
2023-02-02T12:48:31.082Z,15.73
2023-02-02T12:52:03.339Z,15.02
2023-02-02T12:55:47.015Z,14.30
2023-02-02T12:59:26.053Z,13.02
2023-02-02T13:03:02.414Z,14.15
2023-02-02T13:06:30.026Z,15.70
2023-02-02T13:09:57.664Z,17.95
2023-02-02T13:13:23.814Z,15.52
2023-02-02T13:16:27.183Z,14.65
2023-02-02T13:19:36.051Z,14.07
2023-02-02T13:22:42.599Z,12.98
2023-02-02T13:25:49.201Z,18.35
2023-02-02T13:28:58.199Z,15.25
2023-02-02T13:32:06.563Z,18.77
2023-02-02T13:35:49.278Z,15.90
2023-02-02T13:38:56.182Z,19.88
2023-02-02T13:41:58.675Z,15.77
2023-02-02T13:45:16.627Z,16.90
2023-02-02T13:48:30.226Z,15.65
2023-02-02T13:51:58.486Z,16.13
2023-02-02T13:55:19.237Z,15.98
2023-02-02T13:58:59.800Z,16.88
2023-02-02T14:02:02.409Z,18.00
2023-02-02T14:05:06.516Z,19.70
2023-02-02T14:08:21.381Z,19.98
2023-02-02T14:11:31.055Z,18.67
2023-02-02T14:14:36.931Z,18.52
2023-02-02T14:17:38.755Z,19.45
2023-02-02T14:20:44.619Z,20.05
2023-02-02T14:23:51.174Z,17.65
2023-02-02T14:26:57.688Z,18.50
2023-02-02T14:30:00.550Z,17.17
2023-02-02T14:33:20.838Z,15.77
2023-02-02T14:36:22.759Z,14.45
2023-02-02T14:39:30.240Z,13.80
2023-02-02T14:43:22.364Z,14.40
2023-02-02T14:46:33.998Z,13.93
2023-02-02T14:49:35.908Z,14.02
2023-02-02T14:52:37.750Z,16.67
2023-02-02T14:55:57.900Z,16.67
2023-02-02T14:59:02.033Z,22.70
2023-02-02T15:02:22.131Z,17.00
2023-02-02T15:05:30.712Z,15.32
2023-02-02T15:08:32.603Z,16.30
2023-02-02T15:12:03.104Z,16.45
2023-02-02T15:15:32.997Z,17.30
2023-02-02T15:18:44.479Z,16.25
2023-02-02T15:21:49.490Z,17.05
2023-02-02T15:24:53.090Z,18.67
2023-02-02T15:28:19.222Z,19.48
2023-02-02T15:31:44.002Z,22.75
2023-02-02T15:34:50.041Z,19.25
2023-02-02T15:38:00.427Z,19.05
2023-02-02T15:41:15.635Z,19.02
2023-02-02T15:44:26.600Z,18.77
2023-02-02T15:47:37.338Z,19.92
2023-02-02T15:50:46.352Z,19.23
2023-02-02T15:53:51.705Z,20.38
2023-02-02T15:56:55.518Z,18.55
2023-02-02T15:59:58.576Z,18.30
2023-02-02T16:03:18.190Z,19.17
2023-02-02T16:06:21.279Z,18.80
2023-02-02T16:09:26.797Z,35.95
2023-02-02T16:12:28.859Z,23.35
2023-02-02T16:15:34.107Z,23.37
2023-02-02T16:18:36.425Z,38.85
2023-02-02T16:21:46.066Z,22.00
2023-02-02T16:24:51.595Z,21.60
2023-02-02T16:27:54.023Z,21.88
2023-02-02T16:31:00.350Z,18.95
2023-02-02T16:34:02.770Z,21.05
2023-02-02T16:37:14.153Z,20.20
2023-02-02T16:40:29.741Z,20.23
2023-02-02T16:43:31.754Z,20.33
2023-02-02T16:47:00.255Z,19.80
2023-02-02T16:50:28.535Z,19.90
2023-02-02T16:53:30.673Z,21.35
2023-02-02T16:56:39.385Z,20.40
2023-02-02T16:59:41.253Z,20.10
2023-02-02T17:02:48.322Z,19.35
2023-02-02T17:05:54.112Z,24.50
2023-02-02T17:08:55.977Z,22.88
2023-02-02T17:12:02.112Z,20.02
2023-02-02T17:15:28.543Z,25.55
2023-02-02T17:18:30.571Z,26.63
2023-02-02T17:21:33.982Z,25.85
2023-02-02T17:24:36.064Z,20.95
2023-02-02T17:27:37.872Z,31.50
2023-02-02T17:30:41.795Z,20.55
2023-02-02T17:33:43.857Z,19.05
2023-02-02T17:36:45.685Z,18.10
2023-02-02T17:39:50.475Z,24.58
2023-02-02T17:42:53.580Z,18.75
2023-02-02T17:45:55.401Z,19.45
2023-02-02T17:48:57.962Z,18.92
2023-02-02T17:51:59.823Z,25.33
2023-02-02T17:55:01.685Z,21.92
2023-02-02T17:58:03.971Z,19.50
2023-02-02T18:01:06.968Z,18.70
2023-02-02T18:07:12.772Z,17.60
2023-02-02T18:10:16.502Z,18.30
2023-02-02T18:13:20.287Z,21.60
2023-02-02T18:16:22.542Z,18.00
2023-02-02T18:19:24.880Z,15.93
2023-02-02T18:22:27.101Z,17.27
2023-02-02T18:25:29.234Z,18.05
2023-02-02T18:28:31.098Z,18.37
2023-02-02T18:31:33.017Z,18.10
2023-02-02T18:34:36.163Z,18.15
2023-02-02T18:37:38.937Z,19.77
2023-02-02T18:40:40.891Z,20.65
2023-02-02T18:43:42.857Z,19.25
2023-02-02T18:46:44.895Z,18.42
2023-02-02T18:49:46.780Z,18.83
2023-02-02T18:52:48.519Z,19.33
2023-02-02T18:55:51.637Z,30.23
2023-02-02T18:58:53.791Z,19.70
2023-02-02T19:01:55.970Z,19.83
2023-02-02T19:05:16.498Z,18.50
2023-02-02T19:08:18.322Z,18.65
2023-02-02T19:11:26.761Z,16.70
2023-02-02T19:14:33.276Z,18.13
2023-02-02T19:17:35.114Z,17.67
2023-02-02T19:20:38.037Z,15.60
2023-02-02T19:23:41.956Z,15.75
2023-02-02T19:26:49.454Z,15.20
2023-02-02T19:29:55.812Z,15.85
2023-02-02T19:32:57.690Z,15.25
2023-02-02T19:35:59.552Z,15.35
2023-02-02T19:39:11.427Z,18.90
2023-02-02T19:42:13.295Z,14.23
2023-02-02T19:45:24.470Z,24.13
2023-02-02T19:48:31.222Z,22.38
2023-02-02T19:51:33.095Z,15.77
2023-02-02T19:54:43.676Z,18.17
2023-02-02T19:57:45.718Z,16.38
2023-02-02T20:00:52.477Z,21.83
2023-02-02T20:03:55.260Z,16.45
2023-02-02T20:06:59.760Z,17.23
2023-02-02T20:10:19.718Z,14.52
2023-02-02T20:13:33.132Z,15.40
2023-02-02T20:16:41.694Z,14.40
2023-02-02T20:19:46.225Z,19.83
2023-02-02T20:22:48.060Z,20.55
2023-02-02T20:25:49.970Z,22.63
2023-02-02T20:28:54.926Z,23.23
2023-02-02T20:31:59.388Z,17.17
2023-02-02T20:35:14.016Z,16.15
2023-02-02T20:38:23.409Z,20.23
2023-02-02T20:41:26.313Z,16.38
2023-02-02T20:44:30.090Z,16.10
2023-02-02T20:47:31.993Z,16.10
2023-02-02T20:50:33.795Z,16.33
2023-02-02T20:53:35.788Z,16.13
2023-02-02T20:56:37.879Z,21.67
2023-02-02T20:59:39.766Z,16.70
2023-02-02T21:02:41.673Z,22.52
2023-02-02T21:05:43.606Z,23.88
2023-02-02T21:08:47.672Z,20.50
2023-02-02T21:11:49.574Z,17.88
2023-02-02T21:14:54.655Z,19.08
2023-02-02T21:17:56.477Z,18.50
2023-02-02T21:20:58.338Z,19.52
2023-02-02T21:24:00.855Z,16.42
2023-02-02T21:27:04.596Z,14.32
2023-02-02T21:30:08.424Z,13.75
2023-02-02T21:33:10.280Z,14.07
2023-02-02T21:36:24.829Z,14.25
2023-02-02T21:39:33.337Z,12.88
2023-02-02T21:42:35.679Z,10.90
2023-02-02T21:45:39.468Z,11.52
2023-02-02T21:48:42.065Z,25.15
2023-02-02T21:51:43.925Z,10.27
2023-02-02T21:54:47.508Z,9.18
2023-02-02T21:57:49.383Z,8.77
2023-02-02T22:00:57.498Z,8.73
2023-02-02T22:03:59.467Z,8.20
2023-02-02T22:07:12.672Z,7.00
2023-02-02T22:13:25.025Z,6.82
2023-02-02T22:16:26.923Z,6.28
2023-02-02T22:19:33.194Z,6.70
2023-02-02T22:22:36.908Z,8.57
2023-02-02T22:25:40.831Z,8.23
2023-02-02T22:28:42.629Z,5.93
2023-02-02T22:31:44.533Z,6.93
2023-02-02T22:34:46.387Z,6.13
2023-02-02T22:37:48.201Z,6.97
2023-02-02T22:40:51.838Z,7.43
2023-02-02T22:43:53.695Z,6.78
2023-02-02T22:46:55.522Z,6.45
2023-02-02T22:49:57.386Z,6.55
2023-02-02T22:52:59.889Z,7.15
2023-02-02T22:56:01.774Z,7.93
2023-02-02T22:59:03.640Z,8.70
2023-02-02T23:02:05.510Z,9.05
2023-02-02T23:05:10.126Z,10.32
2023-02-02T23:08:11.998Z,9.23
2023-02-02T23:11:13.866Z,8.90
2023-02-02T23:14:15.765Z,9.77
2023-02-02T23:17:17.614Z,9.98
2023-02-02T23:20:19.613Z,9.60
2023-02-02T23:23:23.049Z,9.70
2023-02-02T23:26:25.307Z,10.18
2023-02-02T23:29:27.444Z,10.10
2023-02-02T23:32:29.254Z,11.77
2023-02-02T23:35:31.067Z,13.07
2023-02-02T23:38:32.946Z,12.45
2023-02-02T23:41:34.717Z,11.95
2023-02-02T23:44:36.618Z,12.05
2023-02-02T23:47:38.559Z,11.35
2023-02-02T23:50:40.938Z,12.88
2023-02-02T23:53:43.310Z,11.30
2023-02-02T23:56:45.302Z,11.77
2023-02-02T23:59:47.197Z,12.15
